createdAt,value
2023-04-30T00:03:07.790Z,15.66
2023-04-30T00:08:11.353Z,13.78
2023-04-30T00:13:14.333Z,12.77
2023-04-30T00:18:19.266Z,14.30
2023-04-30T00:23:22.136Z,15.54
2023-04-30T00:28:24.870Z,14.05
2023-04-30T00:33:28.583Z,12.64
2023-04-30T00:38:31.477Z,13.76
2023-04-30T00:43:34.581Z,15.23
2023-04-30T00:48:38.120Z,13.83
2023-04-30T00:53:41.621Z,12.23
2023-04-30T00:58:45.623Z,12.10
2023-04-30T01:03:49.429Z,13.98
2023-04-30T01:08:53.276Z,13.34
2023-04-30T01:14:17.760Z,12.21
2023-04-30T01:19:36.650Z,13.12
2023-04-30T01:24:39.661Z,11.64
2023-04-30T01:29:45.682Z,10.81
2023-04-30T01:34:51.062Z,12.79
2023-04-30T01:40:17.058Z,13.44
2023-04-30T01:45:53.234Z,11.59
2023-04-30T01:51:15.376Z,10.42
2023-04-30T01:56:40.118Z,11.04
2023-04-30T02:01:42.938Z,13.15
2023-04-30T02:06:45.835Z,12.29
2023-04-30T02:11:48.619Z,10.60
2023-04-30T02:16:51.435Z,10.61
2023-04-30T02:21:54.183Z,12.65
2023-04-30T02:26:56.919Z,12.44
2023-04-30T02:31:59.834Z,10.57
2023-04-30T02:37:03.359Z,9.36
2023-04-30T02:42:07.464Z,9.58
2023-04-30T02:47:10.323Z,11.93
2023-04-30T02:52:13.120Z,12.03
2023-04-30T02:57:16.709Z,10.04
2023-04-30T03:02:24.347Z,8.83
2023-04-30T03:07:27.190Z,8.97
2023-04-30T03:12:30.194Z,11.19
2023-04-30T03:17:33.020Z,12.26
2023-04-30T03:22:35.838Z,10.55
2023-04-30T03:27:38.874Z,9.74
2023-04-30T03:32:41.731Z,11.37
2023-04-30T03:37:44.543Z,10.15
2023-04-30T03:42:48.830Z,8.68
2023-04-30T03:47:53.175Z,10.30
2023-04-30T03:52:55.958Z,11.33
2023-04-30T03:57:59.136Z,9.53
2023-04-30T04:03:01.977Z,8.13
2023-04-30T04:08:06.385Z,9.24
2023-04-30T04:13:09.357Z,11.04
2023-04-30T04:18:12.186Z,10.40
2023-04-30T04:23:14.960Z,8.68
2023-04-30T04:28:18.312Z,7.83
2023-04-30T04:33:21.698Z,8.96
2023-04-30T04:38:24.450Z,11.09
2023-04-30T04:43:27.322Z,10.71
2023-04-30T04:48:31.220Z,9.41
2023-04-30T04:53:34.933Z,11.07
2023-04-30T04:58:37.860Z,11.58
2023-04-30T05:03:40.831Z,10.56
2023-04-30T05:08:43.706Z,12.11
2023-04-30T05:13:46.787Z,11.32
2023-04-30T05:18:50.113Z,10.54
2023-04-30T05:23:52.892Z,10.16
2023-04-30T05:28:56.420Z,9.96
2023-04-30T05:33:59.309Z,9.93
2023-04-30T05:39:02.079Z,11.76
2023-04-30T05:44:05.195Z,12.58
2023-04-30T05:49:08.022Z,11.23
2023-04-30T05:54:10.837Z,10.59
2023-04-30T05:59:14.065Z,10.10
2023-04-30T06:04:17.717Z,9.87
2023-04-30T06:09:20.553Z,9.78
2023-04-30T06:14:24.935Z,9.95
2023-04-30T06:19:27.983Z,10.77
2023-04-30T06:24:30.911Z,15.34
2023-04-30T06:29:33.702Z,19.71
2023-04-30T06:34:37.167Z,22.11
2023-04-30T06:39:39.922Z,23.30
2023-04-30T06:44:42.792Z,24.80
2023-04-30T06:49:45.601Z,26.04
2023-04-30T06:54:48.617Z,26.62
2023-04-30T06:59:51.804Z,26.74
2023-04-30T07:04:55.473Z,27.27
2023-04-30T07:09:58.864Z,26.44
2023-04-30T07:15:01.917Z,23.46
2023-04-30T07:20:06.202Z,20.71
2023-04-30T07:25:10.493Z,18.78
2023-04-30T07:30:13.440Z,20.47
2023-04-30T07:35:16.625Z,22.72
2023-04-30T07:40:25.502Z,24.19
2023-04-30T07:45:38.645Z,25.15
2023-04-30T07:50:41.779Z,25.84
2023-04-30T07:55:45.075Z,26.38
2023-04-30T08:00:48.217Z,26.47
2023-04-30T08:05:52.435Z,26.45
2023-04-30T08:10:55.323Z,26.38
2023-04-30T08:15:58.089Z,26.23
2023-04-30T08:21:01.585Z,25.98
2023-04-30T08:26:04.420Z,25.86
2023-04-30T08:31:07.288Z,25.79
2023-04-30T08:36:10.106Z,25.26
2023-04-30T08:41:14.396Z,24.45
2023-04-30T08:46:18.759Z,23.89
2023-04-30T08:51:25.357Z,23.69
2023-04-30T08:56:29.850Z,23.63
2023-04-30T09:01:34.694Z,23.52
2023-04-30T09:06:39.900Z,23.44
2023-04-30T09:11:43.207Z,23.16
2023-04-30T09:16:50.249Z,22.79
2023-04-30T09:21:53.518Z,20.76
2023-04-30T09:26:56.579Z,18.54
2023-04-30T09:32:09.056Z,16.84
2023-04-30T09:37:12.506Z,15.83
2023-04-30T09:42:15.538Z,15.05
2023-04-30T09:47:20.506Z,14.31
2023-04-30T09:52:23.419Z,13.83
2023-04-30T09:57:31.808Z,13.53
2023-04-30T10:02:35.145Z,13.36
2023-04-30T10:07:41.547Z,13.36
2023-04-30T10:12:56.552Z,13.39
2023-04-30T10:18:22.559Z,13.36
2023-04-30T10:23:25.929Z,13.30
2023-04-30T10:28:29.367Z,13.43
2023-04-30T10:33:42.800Z,13.60
2023-04-30T10:38:47.882Z,13.71
2023-04-30T10:43:51.447Z,13.84
2023-04-30T10:48:56.882Z,13.97
2023-04-30T10:54:00.631Z,13.83
2023-04-30T10:59:06.104Z,13.45
2023-04-30T11:04:11.482Z,13.30
2023-04-30T11:09:14.335Z,13.19
2023-04-30T11:14:21.249Z,13.24
2023-04-30T11:19:25.767Z,13.31
2023-04-30T11:24:59.933Z,13.19
2023-04-30T11:30:11.005Z,12.85
2023-04-30T11:35:18.789Z,12.87
2023-04-30T11:40:22.848Z,13.05
2023-04-30T11:45:27.516Z,13.14
2023-04-30T11:50:34.074Z,13.32
2023-04-30T11:55:37.017Z,13.31
2023-04-30T12:00:40.392Z,13.41
2023-04-30T12:05:46.787Z,13.22
2023-04-30T12:10:49.622Z,12.99
2023-04-30T12:16:00.237Z,12.97
2023-04-30T12:21:03.825Z,12.90
2023-04-30T12:26:06.737Z,12.89
2023-04-30T12:31:10.329Z,12.85
2023-04-30T12:36:15.559Z,12.69
2023-04-30T12:41:19.432Z,12.72
2023-04-30T12:46:32.674Z,12.81
2023-04-30T12:51:36.321Z,12.89
2023-04-30T12:56:39.637Z,13.11
2023-04-30T13:01:45.929Z,13.24
2023-04-30T13:06:49.581Z,13.31
2023-04-30T13:11:52.727Z,13.37
2023-04-30T13:16:55.640Z,13.25
2023-04-30T13:21:59.375Z,13.27
2023-04-30T13:27:04.209Z,13.39
2023-04-30T13:32:07.093Z,13.42
2023-04-30T13:37:10.035Z,13.63
2023-04-30T13:42:14.411Z,13.89
2023-04-30T13:47:17.277Z,13.93
2023-04-30T13:52:21.091Z,13.93
2023-04-30T13:57:24.970Z,13.92
2023-04-30T14:02:28.516Z,14.01
2023-04-30T14:07:32.524Z,14.03
2023-04-30T14:12:35.337Z,13.96
2023-04-30T14:17:38.770Z,13.92
2023-04-30T14:22:41.837Z,13.93
2023-04-30T14:27:44.660Z,13.87
2023-04-30T14:32:47.468Z,13.61
2023-04-30T14:37:50.416Z,13.55
2023-04-30T14:42:54.217Z,13.64
2023-04-30T14:47:57.215Z,13.59
2023-04-30T14:53:00.571Z,13.56
2023-04-30T14:58:05.897Z,13.53
2023-04-30T15:03:11.461Z,13.60
2023-04-30T15:08:16.598Z,13.60
2023-04-30T15:13:19.645Z,13.53
2023-04-30T15:18:22.482Z,13.50
2023-04-30T15:23:25.280Z,13.46
2023-04-30T15:28:28.128Z,13.33
2023-04-30T15:33:31.875Z,13.09
2023-04-30T15:38:35.094Z,12.92
2023-04-30T15:43:38.146Z,12.82
2023-04-30T15:48:40.963Z,12.88
2023-04-30T15:53:44.694Z,12.66
2023-04-30T15:58:57.311Z,12.47
2023-04-30T16:04:01.214Z,12.30
2023-04-30T16:09:07.860Z,12.10
2023-04-30T16:14:12.189Z,11.93
2023-04-30T16:19:15.694Z,11.80
2023-04-30T16:24:18.458Z,11.59
2023-04-30T16:29:21.386Z,11.34
2023-04-30T16:34:24.781Z,11.16
2023-04-30T16:39:27.813Z,11.00
2023-04-30T16:44:30.665Z,10.80
2023-04-30T16:49:35.219Z,10.58
2023-04-30T16:54:38.469Z,10.36
2023-04-30T16:59:41.724Z,10.11
2023-04-30T17:04:44.594Z,9.87
2023-04-30T17:09:47.911Z,9.72
2023-04-30T17:14:52.536Z,9.62
2023-04-30T17:19:57.460Z,9.48
2023-04-30T17:25:07.619Z,9.31
2023-04-30T17:30:11.015Z,9.14
2023-04-30T17:35:14.423Z,8.96
2023-04-30T17:40:19.058Z,8.77
2023-04-30T17:45:21.846Z,8.62
2023-04-30T17:50:27.852Z,8.50
2023-04-30T17:55:31.025Z,8.34
2023-04-30T18:00:34.624Z,8.21
2023-04-30T18:05:37.478Z,8.05
2023-04-30T18:10:40.997Z,7.89
2023-04-30T18:15:45.391Z,7.76
2023-04-30T18:20:51.186Z,7.62
2023-04-30T18:25:54.023Z,7.50
2023-04-30T18:30:57.121Z,7.37
2023-04-30T18:36:05.370Z,7.26
2023-04-30T18:41:09.027Z,7.14
2023-04-30T18:46:12.017Z,7.03
2023-04-30T18:51:15.746Z,6.93
2023-04-30T18:56:18.568Z,6.84
2023-04-30T19:01:27.479Z,6.74
2023-04-30T19:06:33.597Z,6.62
2023-04-30T19:11:36.754Z,6.52
2023-04-30T19:16:39.938Z,6.44
2023-04-30T19:21:44.384Z,6.35
2023-04-30T19:26:47.618Z,6.25
2023-04-30T19:31:53.314Z,6.16
2023-04-30T19:36:57.235Z,6.07
2023-04-30T19:42:00.019Z,5.99
2023-04-30T19:47:03.955Z,5.91
2023-04-30T19:52:08.568Z,5.84
2023-04-30T19:57:11.601Z,5.77
2023-04-30T20:02:15.874Z,5.71
2023-04-30T20:07:20.579Z,5.62
2023-04-30T20:12:23.352Z,5.53
2023-04-30T20:17:26.204Z,5.46
2023-04-30T20:22:29.057Z,5.39
2023-04-30T20:27:34.335Z,5.33
2023-04-30T20:32:39.207Z,5.28
2023-04-30T20:37:42.201Z,5.20
2023-04-30T20:42:46.174Z,5.11
2023-04-30T20:47:48.980Z,5.00
2023-04-30T20:52:52.098Z,4.89
2023-04-30T20:57:55.649Z,4.75
2023-04-30T21:02:58.705Z,4.63
2023-04-30T21:08:02.041Z,4.52
2023-04-30T21:13:05.934Z,4.43
2023-04-30T21:18:09.492Z,4.34
2023-04-30T21:23:14.898Z,4.25
2023-04-30T21:28:19.435Z,4.16
2023-04-30T21:33:22.295Z,4.07
2023-04-30T21:38:25.096Z,3.97
2023-04-30T21:43:27.898Z,3.88
2023-04-30T21:48:30.771Z,3.81
2023-04-30T21:53:33.590Z,3.73
2023-04-30T21:58:36.873Z,3.66
2023-04-30T22:03:42.460Z,3.61
2023-04-30T22:08:45.313Z,3.58
2023-04-30T22:13:48.272Z,3.52
2023-04-30T22:18:51.413Z,3.47
2023-04-30T22:23:54.616Z,3.45
2023-04-30T22:28:58.237Z,3.43
2023-04-30T22:34:01.017Z,3.38
2023-04-30T22:39:04.600Z,3.32
2023-04-30T22:44:07.652Z,3.29
2023-04-30T22:49:19.979Z,4.19
2023-04-30T22:54:31.348Z,7.35
2023-04-30T22:59:34.206Z,9.02
2023-04-30T23:04:37.001Z,8.42
2023-04-30T23:09:40.062Z,6.72
2023-04-30T23:14:42.979Z,5.75
2023-04-30T23:19:45.712Z,5.07
2023-04-30T23:24:48.569Z,4.50
2023-04-30T23:29:51.425Z,4.03
2023-04-30T23:34:54.325Z,3.67
2023-04-30T23:39:57.662Z,4.32
2023-04-30T23:45:01.254Z,7.09
2023-04-30T23:50:04.787Z,8.65
2023-04-30T23:55:08.589Z,7.56
